Time;durP1;ratioP1;P1;durP2;ratioP2;P2;SDS_P1;SDS_P2;PMS_P1;PMS_P2;Temp;Humidity;BMP_temperature;BMP_pressure;BME280_temperature;BME280_humidity;BME280_pressure;Samples;Min_cycle;Max_cycle;Signal;HPM_P1;HPM_P2
2021/11/22 00:02:15;;;;;;;36.70;16.95;;;;;;;5.57;100.00;99635.51;1687307;85;21314;-76
2021/11/22 00:05:22;;;;;;;52.27;20.92;;;;;;;5.58;100.00;99642.63;1688285;85;21826;-76
2021/11/22 00:08:27;;;;;;;50.03;21.12;;;;;;;5.59;100.00;99647.88;1687337;85;21236;-76
2021/11/22 00:11:33;;;;;;;36.93;17.23;;;;;;;5.63;100.00;99641.64;1686122;85;21225;-76
2021/11/22 00:14:39;;;;;;;45.50;18.55;;;;;;;5.71;100.00;99634.91;1685880;85;21243;-76
2021/11/22 00:17:44;;;;;;;48.35;19.52;;;;;;;5.77;100.00;99636.97;1686067;85;21855;-76
2021/11/22 00:20:50;;;;;;;57.05;20.15;;;;;;;5.81;100.00;99634.27;1687010;82;21346;-76
2021/11/22 00:23:57;;;;;;;41.00;18.32;;;;;;;5.85;100.00;99637.52;1686122;84;21221;-76
2021/11/22 00:27:02;;;;;;;30.65;16.02;;;;;;;5.87;100.00;99641.76;1686522;85;21359;-77
2021/11/22 00:30:08;;;;;;;41.00;19.37;;;;;;;5.86;100.00;99638.70;1654992;86;21252;-77
2021/11/22 00:33:26;;;;;;;41.73;21.25;;;;;;;5.85;100.00;99634.81;1687541;85;21326;-77
2021/11/22 00:36:33;;;;;;;28.47;16.67;;;;;;;5.85;100.00;99628.88;1645975;86;21347;-77
2021/11/22 00:39:39;;;;;;;26.37;15.60;;;;;;;5.84;100.00;99636.67;1686831;85;21346;-77
2021/11/22 00:42:49;;;;;;;34.40;17.40;;;;;;;5.83;100.00;99640.41;1687192;85;21358;-77
2021/11/22 00:45:58;;;;;;;30.15;17.35;;;;;;;5.81;100.00;99626.64;1671446;85;21212;-77
2021/11/22 00:49:04;;;;;;;42.88;20.65;;;;;;;5.80;100.00;99629.87;1687522;85;21326;-77
2021/11/22 00:52:10;;;;;;;31.60;17.82;;;;;;;5.80;100.00;99620.37;1687349;85;21181;-76
2021/11/22 00:55:16;;;;;;;29.35;16.35;;;;;;;5.79;100.00;99636.31;1686505;85;21232;-77
2021/11/22 00:58:21;;;;;;;34.30;17.27;;;;;;;5.83;100.00;99632.75;1686045;85;21236;-76
2021/11/22 01:01:26;;;;;;;36.25;18.27;;;;;;;5.86;100.00;99630.56;1687367;85;21319;-76
2021/11/22 01:04:36;;;;;;;25.48;15.80;;;;;;;5.90;100.00;99627.87;1687340;85;21746;-76
2021/11/22 01:07:40;;;;;;;31.00;15.05;;;;;;;5.95;100.00;99619.78;1655420;86;21862;-76
2021/11/22 01:10:46;;;;;;;33.70;18.73;;;;;;;5.99;100.00;99633.38;1686459;85;21894;-77
2021/11/22 01:13:54;;;;;;;27.35;17.85;;;;;;;6.00;100.00;99625.56;1687383;85;21200;-77
2021/11/22 01:16:54;;;;;;;31.20;18.02;;;;;;;6.03;100.00;99631.53;1687794;85;21403;-77
2021/11/22 01:19:59;;;;;;;31.33;19.37;;;;;;;6.10;100.00;99631.71;1687422;85;21185;-77
2021/11/22 01:23:08;;;;;;;29.32;16.87;;;;;;;6.13;100.00;99632.75;1702541;83;21344;-77
2021/11/22 01:26:14;;;;;;;35.70;20.43;;;;;;;6.15;100.00;99629.35;1709471;84;21381;-77
2021/11/22 01:29:19;;;;;;;30.50;17.45;;;;;;;6.13;100.00;99625.97;1676267;85;21538;-76
2021/11/22 01:32:25;;;;;;;27.55;16.73;;;;;;;6.17;100.00;99631.92;1649174;85;21387;-76
2021/11/22 01:35:30;;;;;;;25.02;17.40;;;;;;;6.21;100.00;99626.00;1651950;87;22580;-77
2021/11/22 01:38:35;;;;;;;27.10;17.52;;;;;;;6.27;100.00;99624.48;1675460;85;21367;-76
2021/11/22 01:41:40;;;;;;;24.27;15.55;;;;;;;6.36;100.00;99613.47;1650157;87;21922;-77
2021/11/22 01:44:47;;;;;;;27.60;17.73;;;;;;;6.43;100.00;99615.00;1652037;87;21339;-77
2021/11/22 01:47:53;;;;;;;29.48;18.62;;;;;;;6.47;100.00;99607.38;1675783;85;21209;-76
2021/11/22 01:50:59;;;;;;;32.42;18.98;;;;;;;6.50;100.00;99617.92;1650261;87;21851;-76
2021/11/22 01:54:04;;;;;;;29.25;16.23;;;;;;;6.49;100.00;99608.89;1651922;87;21822;-76
2021/11/22 01:57:10;;;;;;;28.92;17.27;;;;;;;6.47;100.00;99615.02;1675031;85;21263;-76
2021/11/22 02:00:20;;;;;;;34.00;19.00;;;;;;;6.47;100.00;99617.73;1650562;87;21907;-76
2021/11/22 02:03:26;;;;;;;32.50;18.35;;;;;;;6.48;100.00;99626.73;1652140;87;21204;-76
2021/11/22 02:06:32;;;;;;;29.85;19.07;;;;;;;6.50;100.00;99619.28;1651962;87;21947;-76
2021/11/22 02:09:39;;;;;;;30.10;18.27;;;;;;;6.53;100.00;99620.28;1650625;86;21207;-77
2021/11/22 02:12:46;;;;;;;30.12;18.17;;;;;;;6.57;100.00;99618.42;1676359;85;21328;-77
2021/11/22 02:15:52;;;;;;;28.95;17.05;;;;;;;6.60;100.00;99615.89;1650440;87;21884;-77
2021/11/22 02:18:57;;;;;;;32.78;20.17;;;;;;;6.65;100.00;99612.16;1651100;87;21339;-77
2021/11/22 02:22:02;;;;;;;37.10;22.02;;;;;;;6.69;100.00;99620.33;1676201;85;22017;-77
2021/11/22 02:25:08;;;;;;;27.17;17.65;;;;;;;6.72;100.00;99606.89;1650264;87;21331;-77
2021/11/22 02:28:15;;;;;;;28.38;15.72;;;;;;;6.74;100.00;99615.23;1651568;87;21335;-77
2021/11/22 02:31:21;;;;;;;29.48;16.57;;;;;;;6.73;100.00;99624.41;1675884;85;21355;-77
2021/11/22 02:34:26;;;;;;;36.85;19.87;;;;;;;6.70;100.00;99622.02;1650450;87;21336;-77
2021/11/22 02:37:32;;;;;;;44.50;24.27;;;;;;;6.64;100.00;99620.83;1651901;87;21188;-77
2021/11/22 02:40:37;;;;;;;54.50;27.87;;;;;;;6.62;100.00;99622.00;1676326;85;21346;-77
2021/11/22 02:43:46;;;;;;;49.27;26.10;;;;;;;6.61;100.00;99632.53;1650288;87;21346;-76
2021/11/22 02:46:52;;;;;;;44.67;24.85;;;;;;;6.64;100.00;99641.72;1651854;87;21351;-77
2021/11/22 02:49:59;;;;;;;40.80;23.30;;;;;;;6.69;100.00;99637.98;1676749;85;21324;-77
2021/11/22 02:53:04;;;;;;;39.92;21.55;;;;;;;6.73;100.00;99642.08;1650455;87;21232;-77
2021/11/22 02:56:14;;;;;;;43.78;26.25;;;;;;;6.85;100.00;99644.79;1651883;87;21854;-77
2021/11/22 02:59:20;;;;;;;48.02;27.32;;;;;;;6.94;100.00;99643.45;1675606;85;21351;-77
2021/11/22 03:02:27;;;;;;;38.38;22.58;;;;;;;6.99;100.00;99639.70;1650363;87;21269;-78
2021/11/22 03:05:33;;;;;;;45.20;25.52;;;;;;;7.05;100.00;99639.02;1676288;85;21934;-77
2021/11/22 03:08:38;;;;;;;49.67;27.25;;;;;;;7.06;100.00;99638.02;1649832;87;21387;-77
2021/11/22 03:11:43;;;;;;;39.67;24.18;;;;;;;7.01;100.00;99647.17;1676099;85;21359;-77
2021/11/22 03:14:49;;;;;;;44.15;24.40;;;;;;;7.02;100.00;99640.73;1650316;87;21280;-77
2021/11/22 03:17:55;;;;;;;39.78;22.93;;;;;;;7.01;100.00;99648.53;1651843;87;21858;-77
2021/11/22 03:21:01;;;;;;;42.23;24.35;;;;;;;7.00;100.00;99658.56;1676199;85;22545;-77
2021/11/22 03:24:07;;;;;;;45.98;27.48;;;;;;;6.98;100.00;99662.48;1642116;85;21728;-76
2021/11/22 03:27:14;;;;;;;56.58;30.60;;;;;;;6.95;100.00;99653.30;1644337;87;21297;-77
2021/11/22 03:30:21;;;;;;;48.15;26.65;;;;;;;6.93;100.00;99652.11;1643565;87;21328;-77
2021/11/22 03:33:27;;;;;;;41.53;26.50;;;;;;;6.89;100.00;99652.11;1644757;87;21343;-77
2021/11/22 03:36:33;;;;;;;37.90;23.65;;;;;;;6.86;100.00;99651.07;1644594;87;21327;-77
2021/11/22 03:39:39;;;;;;;38.83;23.15;;;;;;;6.88;100.00;99648.54;1643940;87;21347;-78
2021/11/22 03:45:53;;;;;;;37.63;22.25;;;;;;;6.85;100.00;99650.23;1644589;87;21734;-78
2021/11/22 03:48:54;;;;;;;42.15;24.20;;;;;;;6.79;100.00;99655.50;1644576;87;21268;-77
2021/11/22 03:51:59;;;;;;;41.30;24.98;;;;;;;6.77;100.00;99662.95;1644597;87;21249;-77
2021/11/22 03:55:05;;;;;;;47.55;27.35;;;;;;;6.80;100.00;99662.11;1644698;87;21315;-77
2021/11/22 03:58:10;;;;;;;36.17;22.37;;;;;;;6.83;100.00;99660.95;1643663;87;21336;-77
2021/11/22 04:01:15;;;;;;;42.08;24.80;;;;;;;6.83;100.00;99660.44;1644681;87;21178;-77
2021/11/22 04:04:21;;;;;;;39.42;23.52;;;;;;;6.79;100.00;99656.86;1643299;87;21856;-77
2021/11/22 04:07:26;;;;;;;49.18;26.97;;;;;;;6.75;100.00;99657.70;1650987;86;21197;-77
2021/11/22 04:10:31;;;;;;;57.30;31.65;;;;;;;6.74;100.00;99664.67;1643641;87;21869;-77
2021/11/22 04:13:37;;;;;;;44.58;24.95;;;;;;;6.73;100.00;99667.89;1653686;86;21173;-76
2021/11/22 04:16:44;;;;;;;53.42;30.72;;;;;;;6.76;100.00;99673.49;1670435;85;22472;-77
2021/11/22 04:19:50;;;;;;;52.78;28.80;;;;;;;6.76;100.00;99672.98;1671429;86;21408;-77
2021/11/22 04:22:56;;;;;;;51.50;28.67;;;;;;;6.83;100.00;99676.74;1662724;86;21292;-77
2021/11/22 04:26:02;;;;;;;44.88;25.27;;;;;;;6.92;100.00;99692.56;1649857;85;21809;-76
2021/11/22 04:29:08;;;;;;;46.20;27.32;;;;;;;6.98;100.00;99692.39;1686602;85;21382;-77
2021/11/22 04:32:15;;;;;;;47.67;28.65;;;;;;;7.00;100.00;99696.63;1687866;83;21220;-75
2021/11/22 04:35:22;;;;;;;48.80;27.05;;;;;;;6.98;100.00;99697.83;1722546;81;21279;-75
2021/11/22 04:38:26;;;;;;;40.17;22.52;;;;;;;6.97;100.00;99701.58;1694106;83;21189;-76
2021/11/22 04:41:32;;;;;;;37.93;24.27;;;;;;;6.98;100.00;99695.96;1719528;81;21216;-76
2021/11/22 04:44:38;;;;;;;44.20;26.33;;;;;;;7.00;100.00;99702.58;1680915;84;21302;-76
2021/11/22 04:47:43;;;;;;;41.40;23.83;;;;;;;7.05;100.00;99696.13;1725898;81;21719;-78
2021/11/22 04:50:48;;;;;;;39.60;24.63;;;;;;;7.08;100.00;99702.08;1708269;84;21279;-77
2021/11/22 04:53:53;;;;;;;39.38;24.77;;;;;;;7.07;100.00;99711.27;1712437;84;22500;-77
2021/11/22 04:56:59;;;;;;;38.67;24.85;;;;;;;7.11;100.00;99709.07;1706798;81;21861;-76
2021/11/22 05:00:05;;;;;;;37.42;22.65;;;;;;;7.14;100.00;99704.63;1686724;85;21375;-77
2021/11/22 05:03:12;;;;;;;41.45;26.33;;;;;;;7.15;100.00;99704.48;1685882;83;21724;-76
2021/11/22 05:06:19;;;;;;;36.50;22.87;;;;;;;7.17;100.00;99707.02;1687536;85;21302;-76
2021/11/22 05:09:25;;;;;;;42.15;24.92;;;;;;;7.19;100.00;99718.57;1688518;83;21268;-76
2021/11/22 05:12:31;;;;;;;35.05;21.82;;;;;;;7.17;100.00;99721.47;1687388;85;21304;-76
2021/11/22 05:15:37;;;;;;;39.05;24.05;;;;;;;7.12;100.00;99736.09;1689100;81;21363;-77
2021/11/22 05:18:42;;;;;;;37.63;23.12;;;;;;;7.06;100.00;99735.92;1690297;83;21185;-76
2021/11/22 05:21:49;;;;;;;36.25;23.55;;;;;;;7.00;100.00;99737.41;1685907;85;21673;-76
2021/11/22 05:24:57;;;;;;;37.08;23.15;;;;;;;6.98;100.00;99742.19;1686212;85;21176;-76
2021/11/22 05:28:02;;;;;;;37.93;21.82;;;;;;;6.94;100.00;99746.25;1685090;82;21342;-79
2021/11/22 05:31:08;;;;;;;33.80;20.15;;;;;;;6.91;100.00;99755.58;1711585;81;21983;-75
2021/11/22 05:34:19;;;;;;;33.98;21.57;;;;;;;6.82;100.00;99759.32;1689858;82;21660;-77
2021/11/22 05:37:23;;;;;;;36.20;22.22;;;;;;;6.74;100.00;99772.03;1719442;81;21176;-76
2021/11/22 05:40:28;;;;;;;41.45;25.72;;;;;;;6.64;100.00;99761.30;1707314;82;21323;-77
2021/11/22 05:43:38;;;;;;;40.52;24.60;;;;;;;6.65;100.00;99765.71;1717762;82;21177;-77
2021/11/22 05:46:41;;;;;;;32.35;20.35;;;;;;;6.71;100.00;99764.19;1695170;82;21204;-77
2021/11/22 05:49:47;;;;;;;32.53;21.33;;;;;;;6.77;100.00;99770.31;1695322;81;22501;-77
2021/11/22 05:52:55;;;;;;;33.50;21.30;;;;;;;6.76;100.00;99769.47;1714016;81;21181;-76
2021/11/22 05:56:00;;;;;;;35.78;22.67;;;;;;;6.77;100.00;99768.45;1698718;82;21388;-77
2021/11/22 05:59:06;;;;;;;37.55;23.77;;;;;;;6.83;100.00;99777.33;1743266;81;21850;-76
2021/11/22 06:02:12;;;;;;;35.50;20.48;;;;;;;6.94;100.00;99784.83;1707305;81;21233;-77
2021/11/22 06:05:18;;;;;;;30.60;19.40;;;;;;;7.01;100.00;99787.20;1709585;81;21890;-77
2021/11/22 06:08:24;;;;;;;34.90;22.17;;;;;;;6.98;100.00;99782.13;1711467;81;22511;-77
2021/11/22 06:11:31;;;;;;;25.88;17.42;;;;;;;6.92;100.00;99791.80;1688254;82;21224;-79
2021/11/22 06:14:38;;;;;;;35.30;20.97;;;;;;;6.98;100.00;99791.12;1697435;81;21354;-78
2021/11/22 06:17:44;;;;;;;31.48;20.72;;;;;;;7.00;100.00;99795.03;1699063;81;21338;-78
2021/11/22 06:20:50;;;;;;;33.55;22.20;;;;;;;7.06;100.00;99795.75;1700851;81;21274;-78
2021/11/22 06:23:59;;;;;;;30.37;19.40;;;;;;;7.07;100.00;99805.09;1708049;81;21339;-79
2021/11/22 06:27:03;;;;;;;27.45;18.80;;;;;;;7.06;100.00;99803.39;1707033;81;21375;-78
2021/11/22 06:30:11;;;;;;;28.40;17.77;;;;;;;7.08;100.00;99801.34;1709530;81;21235;-78
2021/11/22 06:33:17;;;;;;;32.42;21.95;;;;;;;7.06;100.00;99803.91;1706011;81;21323;-78
2021/11/22 06:36:23;;;;;;;33.25;22.73;;;;;;;7.05;100.00;99802.18;1709001;81;21378;-78
2021/11/22 06:39:35;;;;;;;30.62;19.37;;;;;;;7.12;100.00;99801.88;1702253;81;21914;-78
2021/11/22 06:42:45;;;;;;;31.52;21.10;;;;;;;7.22;100.00;99801.20;1679530;83;21157;-79
2021/11/22 06:45:55;;;;;;;34.20;22.55;;;;;;;7.30;100.00;99802.59;1705812;81;21191;-78
2021/11/22 06:49:02;;;;;;;26.30;16.62;;;;;;;7.34;100.00;99795.80;1714562;81;21332;-78
2021/11/22 06:52:09;;;;;;;25.20;17.12;;;;;;;7.34;100.00;99806.69;1685939;81;21754;-78
2021/11/22 06:55:10;;;;;;;32.30;20.95;;;;;;;7.27;100.00;99802.92;1685938;81;21232;-78
2021/11/22 06:58:21;;;;;;;30.90;20.10;;;;;;;7.22;100.00;99802.57;1653442;81;21196;-77
2021/11/22 07:01:29;;;;;;;32.88;20.60;;;;;;;7.23;100.00;99804.27;1665911;81;21243;-80
2021/11/22 07:04:40;;;;;;;33.02;21.77;;;;;;;7.24;100.00;99807.83;1703477;81;21181;-75
2021/11/22 07:07:51;;;;;;;34.35;22.77;;;;;;;7.29;100.00;99809.05;1653592;81;21628;-77
2021/11/22 07:10:57;;;;;;;27.17;17.23;;;;;;;7.34;100.00;99813.48;1680363;81;21612;-78
2021/11/22 07:14:04;;;;;;;32.10;21.20;;;;;;;7.38;100.00;99816.19;1666286;81;21215;-78
2021/11/22 07:17:11;;;;;;;32.78;19.07;;;;;;;7.40;100.00;99808.72;1690513;81;21323;-78
2021/11/22 07:20:18;;;;;;;38.50;24.35;;;;;;;7.43;100.00;99811.12;1694529;81;21212;-77
2021/11/22 07:23:25;;;;;;;35.03;22.35;;;;;;;7.46;100.00;99812.63;1720380;81;21390;-77
2021/11/22 07:26:31;;;;;;;46.30;25.70;;;;;;;7.55;100.00;99807.54;1707264;81;21323;-77
2021/11/22 07:29:37;;;;;;;39.95;23.42;;;;;;;7.63;100.00;99810.79;1719284;81;21231;-80
2021/11/22 07:32:45;;;;;;;35.08;23.12;;;;;;;7.66;100.00;99811.28;1714920;81;21224;-80
2021/11/22 07:35:51;;;;;;;38.67;22.77;;;;;;;7.67;100.00;99812.16;1722633;81;21223;-76
2021/11/22 07:38:57;;;;;;;35.38;22.05;;;;;;;7.68;100.00;99816.58;1719560;81;21472;-78
2021/11/22 07:42:09;;;;;;;30.88;20.57;;;;;;;7.72;100.00;99823.38;1707407;81;21222;-81
2021/11/22 07:45:16;;;;;;;32.55;21.20;;;;;;;7.74;100.00;99821.33;1709422;81;21366;-77
2021/11/22 07:48:21;;;;;;;39.08;22.32;;;;;;;7.72;100.00;99824.75;1712334;81;21506;-77
2021/11/22 07:51:25;;;;;;;36.28;23.50;;;;;;;7.72;100.00;99826.11;1710352;81;21247;-77
2021/11/22 07:54:31;;;;;;;30.77;19.98;;;;;;;7.73;100.00;99829.16;1708328;81;21253;-77
2021/11/22 07:57:39;;;;;;;36.75;23.02;;;;;;;7.77;100.00;99834.61;1715233;81;21909;-77
2021/11/22 08:00:47;;;;;;;34.92;21.70;;;;;;;7.77;100.00;99838.70;1711397;81;21179;-77
2021/11/22 08:03:56;;;;;;;30.93;18.90;;;;;;;7.74;100.00;99838.17;1708448;81;21187;-78
2021/11/22 08:07:12;;;;;;;34.27;21.60;;;;;;;7.72;100.00;99835.64;1684286;81;21200;-78
2021/11/22 08:10:25;;;;;;;33.30;21.17;;;;;;;7.69;100.00;99846.34;1713868;81;21668;-78
2021/11/22 08:13:25;;;;;;;36.05;22.52;;;;;;;7.70;100.00;99837.66;1709813;81;21972;-79
2021/11/22 08:16:39;;;;;;;36.33;23.02;;;;;;;7.73;100.00;99836.48;1825641;76;22399;-79
2021/11/22 08:19:46;;;;;;;33.90;22.25;;;;;;;7.72;100.00;99836.15;1774057;77;21287;-84
2021/11/22 08:22:54;;;;;;;38.65;22.73;;;;;;;7.80;100.00;99837.49;1796036;77;21391;-81
2021/11/22 08:26:03;;;;;;;38.05;23.02;;;;;;;7.88;100.00;99832.90;1786469;79;21719;-81
2021/11/22 08:29:12;;;;;;;33.23;19.48;;;;;;;7.96;100.00;99829.84;1796570;79;21294;-80
2021/11/22 08:32:18;;;;;;;43.65;22.45;;;;;;;7.99;100.00;99831.70;1773778;79;21619;-77
2021/11/22 08:35:24;;;;;;;30.15;19.02;;;;;;;7.88;100.00;99831.53;1772562;79;21338;-79
2021/11/22 08:38:29;;;;;;;39.45;24.90;;;;;;;7.88;100.00;99824.73;1778325;79;21585;-79
2021/11/22 08:41:40;;;;;;;38.10;21.95;;;;;;;7.83;100.00;99825.75;1766674;79;22332;-82
2021/11/22 08:44:45;;;;;;;40.67;24.75;;;;;;;7.83;100.00;99823.03;1775088;79;21346;-81
2021/11/22 08:47:56;;;;;;;42.78;25.52;;;;;;;7.81;100.00;99823.73;1778099;79;21322;-80
2021/11/22 08:51:04;;;;;;;41.10;23.07;;;;;;;7.81;100.00;99823.73;1767352;79;21380;-79
2021/11/22 08:54:11;;;;;;;35.45;22.55;;;;;;;7.88;100.00;99826.09;1776701;79;21717;-81
2021/11/22 08:57:19;;;;;;;40.30;23.55;;;;;;;7.91;100.00;99827.13;1775642;79;21201;-82
2021/11/22 09:00:35;;;;;;;42.88;25.52;;;;;;;7.88;100.00;99827.45;1773340;79;21900;-78
2021/11/22 09:03:41;;;;;;;38.28;21.37;;;;;;;7.82;100.00;99825.94;1774720;79;22043;-77
2021/11/22 09:06:50;;;;;;;41.50;23.98;;;;;;;7.81;100.00;99829.17;1772166;79;21306;-77
2021/11/22 09:09:55;;;;;;;36.63;21.85;;;;;;;7.88;100.00;99822.01;1776527;79;21735;-77
2021/11/22 09:13:04;;;;;;;38.38;22.17;;;;;;;8.01;100.00;99820.66;1773676;79;21354;-78
2021/11/22 09:16:10;;;;;;;35.20;20.57;;;;;;;8.10;100.00;99814.17;1753078;79;21243;-77
2021/11/22 09:19:16;;;;;;;36.80;22.27;;;;;;;8.16;100.00;99818.92;1763151;79;21256;-80
2021/11/22 09:22:27;;;;;;;39.63;24.77;;;;;;;8.19;100.00;99817.22;1730384;81;21317;-78
2021/11/22 09:25:35;;;;;;;39.60;25.25;;;;;;;8.22;100.00;99813.28;1711041;82;21433;-78
2021/11/22 09:28:41;;;;;;;40.17;26.23;;;;;;;8.29;100.00;99811.06;1703942;81;21219;-78
2021/11/22 09:31:51;;;;;;;44.75;27.02;;;;;;;8.37;100.00;99816.51;1696500;81;21224;-80
2021/11/22 09:34:57;;;;;;;40.55;24.50;;;;;;;8.42;100.00;99809.17;1701821;81;21771;-79
2021/11/22 09:38:03;;;;;;;42.53;24.95;;;;;;;8.44;100.00;99809.35;1711196;82;21327;-80
2021/11/22 09:41:08;;;;;;;47.60;27.32;;;;;;;8.42;99.69;99804.60;1725716;81;21248;-78
2021/11/22 09:44:12;;;;;;;42.78;26.52;;;;;;;8.39;99.42;99808.19;1706777;82;21154;-81
2021/11/22 09:47:18;;;;;;;45.80;28.38;;;;;;;8.38;99.60;99808.70;1706951;82;21302;-79
2021/11/22 09:50:24;;;;;;;43.23;25.08;;;;;;;8.42;100.00;99809.17;1697501;82;21413;-80
2021/11/22 09:53:30;;;;;;;45.55;27.82;;;;;;;8.48;100.00;99807.13;1716152;81;21292;-79
2021/11/22 09:56:36;;;;;;;39.25;25.23;;;;;;;8.48;99.76;99807.65;1719808;81;21783;-78
2021/11/22 09:59:42;;;;;;;43.15;26.42;;;;;;;8.51;100.00;99812.22;1715728;81;21994;-79
2021/11/22 10:02:54;;;;;;;39.00;23.90;;;;;;;8.56;99.97;99815.78;1719666;81;21200;-79
2021/11/22 10:06:10;;;;;;;39.23;24.90;;;;;;;8.62;99.95;99816.46;1717487;81;21703;-78
2021/11/22 10:09:15;;;;;;;43.13;26.27;;;;;;;8.69;99.97;99825.63;1715680;81;21728;-78
2021/11/22 10:12:33;;;;;;;47.53;28.77;;;;;;;8.75;99.39;99830.39;1703321;82;21396;-78
2021/11/22 10:15:45;;;;;;;46.63;28.75;;;;;;;8.80;98.99;99827.98;1707173;81;21201;-77
2021/11/22 10:19:04;;;;;;;49.70;28.80;;;;;;;8.86;98.24;99844.15;1709921;82;21200;-81
2021/11/22 10:22:17;;;;;;;46.85;28.32;;;;;;;8.84;97.70;99837.48;1742338;79;21166;-79
2021/11/22 10:25:48;;;;;;;40.90;24.45;;;;;;;8.88;97.63;99837.47;1756644;79;21203;-82
2021/11/22 10:29:00;;;;;;;;;;;;;;;8.85;97.25;99839.21;1759694;79;21213;-81
2021/11/22 10:32:09;;;;;;;39.55;26.45;;;;;;;8.78;96.81;99839.56;1760252;79;20232;-81
2021/11/22 10:35:24;;;;;;;46.70;27.73;;;;;;;8.74;96.88;99843.66;1757214;79;21351;-80
2021/11/22 10:38:33;;;;;;;37.00;24.32;;;;;;;8.75;96.85;99845.88;1755548;79;21193;-80
2021/11/22 10:41:43;;;;;;;36.75;23.60;;;;;;;8.74;96.78;99841.45;1755479;79;21351;-83
2021/11/22 10:44:51;;;;;;;40.48;21.95;;;;;;;8.71;96.43;99835.86;1726898;81;21291;-81
2021/11/22 10:48:15;;;;;;;33.88;21.25;;;;;;;8.67;96.15;99833.14;1666401;82;21176;-81
2021/11/22 10:51:39;;;;;;;40.45;25.08;;;;;;;8.66;95.97;99834.17;1753943;79;22612;-81
2021/11/22 10:54:40;;;;;;;40.05;25.00;;;;;;;8.64;95.87;99842.51;1756930;79;21752;-83
2021/11/22 10:57:51;;;;;;;35.60;22.65;;;;;;;8.66;95.63;99843.72;1753865;79;21201;-78
2021/11/22 11:00:58;;;;;;;37.40;23.35;;;;;;;8.70;95.80;99835.50;1723198;81;21817;-78
2021/11/22 11:04:14;;;;;;;37.30;23.30;;;;;;;8.69;94.98;99822.89;1700239;82;21336;-78
2021/11/22 11:07:20;;;;;;;33.15;22.55;;;;;;;8.59;94.69;99829.91;1762709;79;21223;-78
2021/11/22 11:10:33;;;;;;;46.85;25.88;;;;;;;8.51;94.88;99826.36;1757892;79;21286;-77
2021/11/22 11:13:54;;;;;;;43.63;24.82;;;;;;;8.43;94.96;99828.09;1754901;79;21280;-81
2021/11/22 11:17:00;;;;;;;44.80;24.55;;;;;;;8.43;95.46;99830.83;1759568;79;21189;-80
2021/11/22 11:20:07;;;;;;;40.67;26.12;;;;;;;8.43;95.75;99833.55;1776195;79;21917;-77
2021/11/22 11:23:16;;;;;;;40.78;23.45;;;;;;;8.31;95.47;99832.69;1776172;79;21308;-78
2021/11/22 11:26:23;;;;;;;42.03;24.23;;;;;;;8.25;95.87;99827.42;1738944;79;21600;-77
2021/11/22 11:29:28;;;;;;;44.80;28.52;;;;;;;8.24;96.11;99829.81;1771814;79;21310;-79
2021/11/22 11:32:34;;;;;;;48.58;28.47;;;;;;;8.28;96.20;99831.17;1772217;79;21311;-78
2021/11/22 11:35:44;;;;;;;40.67;24.95;;;;;;;8.25;96.17;99834.23;1775514;79;21283;-76
2021/11/22 11:39:10;;;;;;;36.38;23.42;;;;;;;8.22;96.28;99829.12;1770318;79;21736;-77
2021/11/22 11:43:11;;;;;;;40.58;25.77;;;;;;;8.23;96.46;99835.41;1774816;79;21897;-78
2021/11/22 11:46:43;;;;;;;49.03;29.70;;;;;;;8.22;96.27;99835.93;1772425;79;21616;-78
2021/11/22 11:49:52;;;;;;;39.70;23.22;;;;;;;8.14;96.43;99841.41;1736971;80;22002;-79
2021/11/22 11:53:00;;;;;;;39.18;25.08;;;;;;;8.13;96.96;99842.41;1737334;80;21411;-80
2021/11/22 11:56:20;;;;;;;42.60;25.50;;;;;;;8.16;96.92;99835.27;1722254;81;21185;-79
2021/11/22 11:59:41;;;;;;;38.95;23.57;;;;;;;8.21;97.07;99831.52;1737886;80;21176;-79
2021/11/22 12:02:47;;;;;;;39.42;24.57;;;;;;;8.25;96.86;99831.51;1717414;81;21323;-78
2021/11/22 12:05:58;;;;;;;36.45;22.32;;;;;;;8.26;96.54;99834.56;1720105;81;21337;-78
2021/11/22 12:09:20;;;;;;;40.43;25.30;;;;;;;8.28;96.26;99836.62;1716279;81;21330;-76
2021/11/22 12:12:33;;;;;;;38.78;24.77;;;;;;;8.32;96.25;99833.86;1688444;83;21334;-79
2021/11/22 12:15:51;;;;;;;34.27;21.82;;;;;;;8.42;96.02;99838.67;1671003;82;21204;-76
2021/11/22 12:19:01;;;;;;;37.78;24.85;;;;;;;8.50;95.76;99836.93;1676853;82;21302;-77
2021/11/22 12:22:23;;;;;;;46.13;24.55;;;;;;;8.56;94.87;99833.50;1700818;82;21244;-77
2021/11/22 12:25:57;;;;;;;39.40;24.18;;;;;;;8.60;94.12;99831.61;1757453;79;21318;-78
2021/11/22 12:29:02;;;;;;;46.37;24.75;;;;;;;8.66;93.75;99827.36;1758719;79;21184;-77
2021/11/22 12:32:10;;;;;;;41.08;25.15;;;;;;;8.65;93.09;99833.30;1758759;79;21185;-77
2021/11/22 12:35:18;;;;;;;42.08;24.23;;;;;;;8.65;93.11;99828.36;1738443;79;21247;-78
2021/11/22 12:38:33;;;;;;;41.18;24.18;;;;;;;8.66;93.01;99836.38;1754431;79;21507;-77
2021/11/22 12:41:44;;;;;;;39.65;24.27;;;;;;;8.62;92.65;99835.03;1756772;79;21266;-81
2021/11/22 12:45:10;;;;;;;41.68;25.72;;;;;;;8.57;92.64;99837.44;1715231;81;21717;-79
2021/11/22 12:48:41;;;;;;;40.75;25.45;;;;;;;8.55;92.58;99839.47;1756143;79;21322;-76
2021/11/22 12:51:53;;;;;;;38.45;23.90;;;;;;;8.58;92.42;99843.22;1756670;79;21220;-77
2021/11/22 12:55:12;;;;;;;38.17;24.43;;;;;;;8.59;92.33;99848.16;1766190;79;21185;-78
2021/11/22 12:58:23;;;;;;;35.60;22.40;;;;;;;8.62;92.01;99848.66;1753782;79;21189;-77
2021/11/22 13:01:32;;;;;;;35.98;23.45;;;;;;;8.53;91.36;99847.50;1715924;82;21167;-79
2021/11/22 13:04:52;;;;;;;36.55;23.35;;;;;;;8.41;91.43;99847.00;1759724;81;22215;-77
2021/11/22 13:07:57;;;;;;;35.30;23.75;;;;;;;8.39;91.36;99858.08;1763178;79;21704;-77
2021/11/22 13:11:30;;;;;;;38.28;24.63;;;;;;;8.33;91.25;99860.62;1759624;80;21621;-77
2021/11/22 13:14:49;;;;;;;40.08;25.30;;;;;;;8.32;91.44;99862.48;1759510;81;21204;-76
2021/11/22 13:17:45;;;;;;;36.03;23.57;;;;;;;8.27;91.14;99865.39;1763790;79;21276;-77
2021/11/22 13:20:51;;;;;;;33.00;20.72;;;;;;;8.21;91.09;99861.48;1756883;79;21216;-78
2021/11/22 13:23:56;;;;;;;28.02;18.02;;;;;;;8.21;91.16;99860.12;1748709;79;21213;-77
2021/11/22 13:27:06;;;;;;;37.98;25.23;;;;;;;8.15;91.10;99858.09;1758392;81;21268;-77
2021/11/22 13:30:11;;;;;;;37.48;24.30;;;;;;;8.07;91.16;99865.75;1760439;81;21386;-76
2021/11/22 13:33:16;;;;;;;43.08;24.27;;;;;;;8.02;91.28;99869.49;1759687;79;21186;-76
2021/11/22 13:36:39;;;;;;;33.90;21.30;;;;;;;8.03;91.36;99872.55;1750345;81;21304;-76
2021/11/22 13:39:47;;;;;;;32.75;22.20;;;;;;;8.00;91.37;99872.91;1763595;79;21284;-76
2021/11/22 13:42:52;;;;;;;34.45;23.12;;;;;;;7.82;91.31;99874.95;1759890;81;21335;-76
2021/11/22 13:46:07;;;;;;;38.75;23.55;;;;;;;7.69;91.73;99875.44;1753884;79;21875;-77
2021/11/22 13:49:14;;;;;;;35.60;23.80;;;;;;;7.64;92.25;99875.09;1757658;79;21318;-76
2021/11/22 13:52:23;;;;;;;35.80;23.75;;;;;;;7.63;92.51;99878.33;1762397;79;21288;-77
2021/11/22 13:55:29;;;;;;;42.48;25.15;;;;;;;7.65;92.80;99877.63;1763870;79;21235;-77
2021/11/22 13:58:35;;;;;;;36.23;23.67;;;;;;;7.73;92.93;99877.32;1762549;79;21910;-76
2021/11/22 14:01:41;;;;;;;37.90;25.12;;;;;;;7.78;92.75;99875.78;1742205;81;21872;-78
2021/11/22 14:04:57;;;;;;;34.43;24.10;;;;;;;7.77;92.28;99883.62;1715971;81;21316;-76
2021/11/22 14:08:04;;;;;;;38.58;23.55;;;;;;;7.77;92.43;99883.62;1759507;79;21125;-77
2021/11/22 14:11:11;;;;;;;32.78;20.75;;;;;;;7.73;92.31;99889.57;1756634;79;21557;-77
2021/11/22 14:14:30;;;;;;;34.43;22.77;;;;;;;7.64;92.38;99896.87;1767352;81;21197;-76
2021/11/22 14:17:39;;;;;;;38.45;25.32;;;;;;;7.47;92.45;99901.92;1762652;80;21603;-77
2021/11/22 14:20:55;;;;;;;36.50;24.87;;;;;;;7.39;93.02;99902.27;1763796;79;21320;-78
2021/11/22 14:24:17;;;;;;;43.30;28.05;;;;;;;7.41;93.35;99904.80;1778863;80;21212;-76
2021/11/22 14:27:30;;;;;;;45.40;27.55;;;;;;;7.48;93.50;99910.42;1757479;80;21169;-78
2021/11/22 14:30:43;;;;;;;45.70;28.67;;;;;;;7.52;93.25;99906.36;1788178;79;21280;-77
2021/11/22 14:33:49;;;;;;;42.50;28.00;;;;;;;7.52;92.97;99910.44;1762093;80;21314;-76